sensor_id;sensor_type;location;lat;lon;timestamp;P1;durP1;ratioP1;P2;durP2;ratioP2
55784;SDS011;41709;52.536;5.688;2022-12-31T00:02:04;7.25;;;3.15;;
55784;SDS011;41709;52.536;5.688;2022-12-31T00:04:29;6.10;;;2.40;;
55784;SDS011;41709;52.536;5.688;2022-12-31T00:06:55;5.85;;;2.53;;
55784;SDS011;41709;52.536;5.688;2022-12-31T00:09:20;4.13;;;2.00;;
55784;SDS011;41709;52.536;5.688;2022-12-31T00:11:46;4.38;;;2.10;;
55784;SDS011;41709;52.536;5.688;2022-12-31T00:14:12;5.82;;;1.75;;
55784;SDS011;41709;52.536;5.688;2022-12-31T00:16:38;4.80;;;2.20;;
55784;SDS011;41709;52.536;5.688;2022-12-31T00:19:06;5.85;;;1.83;;
55784;SDS011;41709;52.536;5.688;2022-12-31T00:21:34;3.60;;;1.50;;
55784;SDS011;41709;52.536;5.688;2022-12-31T00:24:00;4.05;;;1.77;;
55784;SDS011;41709;52.536;5.688;2022-12-31T00:26:27;5.55;;;1.45;;
55784;SDS011;41709;52.536;5.688;2022-12-31T00:28:54;3.05;;;1.50;;
55784;SDS011;41709;52.536;5.688;2022-12-31T00:31:28;3.85;;;1.08;;
55784;SDS011;41709;52.536;5.688;2022-12-31T00:33:58;2.78;;;1.10;;
55784;SDS011;41709;52.536;5.688;2022-12-31T00:36:28;2.70;;;1.10;;
55784;SDS011;41709;52.536;5.688;2022-12-31T00:38:59;3.33;;;1.20;;
55784;SDS011;41709;52.536;5.688;2022-12-31T00:41:26;2.08;;;0.90;;
55784;SDS011;41709;52.536;5.688;2022-12-31T00:43:52;3.38;;;1.20;;
55784;SDS011;41709;52.536;5.688;2022-12-31T00:46:19;1.63;;;0.90;;
55784;SDS011;41709;52.536;5.688;2022-12-31T00:48:45;3.53;;;0.93;;
55784;SDS011;41709;52.536;5.688;2022-12-31T00:51:12;2.67;;;0.93;;
55784;SDS011;41709;52.536;5.688;2022-12-31T00:53:39;1.77;;;0.73;;
55784;SDS011;41709;52.536;5.688;2022-12-31T00:56:06;2.63;;;0.85;;
55784;SDS011;41709;52.536;5.688;2022-12-31T00:58:34;1.90;;;0.80;;
55784;SDS011;41709;52.536;5.688;2022-12-31T01:01:10;1.33;;;0.55;;
55784;SDS011;41709;52.536;5.688;2022-12-31T01:03:41;2.28;;;0.70;;
55784;SDS011;41709;52.536;5.688;2022-12-31T01:06:06;2.30;;;0.47;;
55784;SDS011;41709;52.536;5.688;2022-12-31T01:08:32;2.05;;;0.35;;
55784;SDS011;41709;52.536;5.688;2022-12-31T01:10:59;1.95;;;0.43;;
55784;SDS011;41709;52.536;5.688;2022-12-31T01:13:53;2.60;;;0.60;;
55784;SDS011;41709;52.536;5.688;2022-12-31T01:16:24;2.28;;;0.57;;
55784;SDS011;41709;52.536;5.688;2022-12-31T01:18:58;4.35;;;1.10;;
55784;SDS011;41709;52.536;5.688;2022-12-31T01:21:26;1.20;;;0.35;;
55784;SDS011;41709;52.536;5.688;2022-12-31T01:23:52;2.50;;;0.50;;
55784;SDS011;41709;52.536;5.688;2022-12-31T01:26:18;2.53;;;0.50;;
55784;SDS011;41709;52.536;5.688;2022-12-31T01:28:44;2.55;;;0.40;;
55784;SDS011;41709;52.536;5.688;2022-12-31T01:31:14;3.13;;;0.47;;
55784;SDS011;41709;52.536;5.688;2022-12-31T01:33:41;1.25;;;0.50;;
55784;SDS011;41709;52.536;5.688;2022-12-31T01:36:09;2.58;;;0.60;;
55784;SDS011;41709;52.536;5.688;2022-12-31T01:38:37;1.63;;;0.60;;
55784;SDS011;41709;52.536;5.688;2022-12-31T01:41:03;2.17;;;1.30;;
55784;SDS011;41709;52.536;5.688;2022-12-31T01:46:26;1.85;;;0.43;;
55784;SDS011;41709;52.536;5.688;2022-12-31T01:49:09;2.40;;;0.47;;
55784;SDS011;41709;52.536;5.688;2022-12-31T01:51:35;1.98;;;0.52;;
55784;SDS011;41709;52.536;5.688;2022-12-31T01:54:03;2.35;;;0.40;;
55784;SDS011;41709;52.536;5.688;2022-12-31T01:56:31;2.17;;;0.60;;
55784;SDS011;41709;52.536;5.688;2022-12-31T01:58:58;5.40;;;0.57;;
55784;SDS011;41709;52.536;5.688;2022-12-31T02:01:25;2.50;;;0.65;;
55784;SDS011;41709;52.536;5.688;2022-12-31T02:03:54;3.83;;;0.60;;
55784;SDS011;41709;52.536;5.688;2022-12-31T02:06:22;4.80;;;0.68;;
55784;SDS011;41709;52.536;5.688;2022-12-31T02:08:52;4.22;;;1.08;;
55784;SDS011;41709;52.536;5.688;2022-12-31T02:13:57;3.05;;;0.50;;
55784;SDS011;41709;52.536;5.688;2022-12-31T02:25:01;4.40;;;0.65;;
55784;SDS011;41709;52.536;5.688;2022-12-31T02:28:00;4.47;;;0.70;;
55784;SDS011;41709;52.536;5.688;2022-12-31T02:30:27;2.65;;;0.80;;
55784;SDS011;41709;52.536;5.688;2022-12-31T02:36:00;4.28;;;0.60;;
55784;SDS011;41709;52.536;5.688;2022-12-31T02:38:32;6.93;;;0.80;;
55784;SDS011;41709;52.536;5.688;2022-12-31T02:41:01;2.05;;;0.63;;
55784;SDS011;41709;52.536;5.688;2022-12-31T02:43:26;5.75;;;1.02;;
55784;SDS011;41709;52.536;5.688;2022-12-31T02:45:59;5.22;;;0.70;;
55784;SDS011;41709;52.536;5.688;2022-12-31T02:48:38;5.00;;;1.52;;
55784;SDS011;41709;52.536;5.688;2022-12-31T02:56:30;3.90;;;0.75;;
55784;SDS011;41709;52.536;5.688;2022-12-31T03:02:16;5.03;;;0.80;;
55784;SDS011;41709;52.536;5.688;2022-12-31T03:04:50;3.72;;;0.60;;
55784;SDS011;41709;52.536;5.688;2022-12-31T03:07:22;3.13;;;0.82;;
55784;SDS011;41709;52.536;5.688;2022-12-31T03:09:50;5.88;;;0.85;;
55784;SDS011;41709;52.536;5.688;2022-12-31T03:12:16;3.40;;;0.75;;
55784;SDS011;41709;52.536;5.688;2022-12-31T03:15:03;7.03;;;0.90;;
55784;SDS011;41709;52.536;5.688;2022-12-31T03:17:30;5.30;;;1.45;;
55784;SDS011;41709;52.536;5.688;2022-12-31T03:19:59;6.10;;;0.90;;
55784;SDS011;41709;52.536;5.688;2022-12-31T03:22:43;3.03;;;0.60;;
55784;SDS011;41709;52.536;5.688;2022-12-31T03:25:10;3.22;;;0.70;;
55784;SDS011;41709;52.536;5.688;2022-12-31T03:27:56;2.55;;;0.60;;
55784;SDS011;41709;52.536;5.688;2022-12-31T03:30:22;4.00;;;0.77;;
55784;SDS011;41709;52.536;5.688;2022-12-31T03:32:49;4.85;;;0.70;;
55784;SDS011;41709;52.536;5.688;2022-12-31T03:35:16;4.10;;;0.70;;
55784;SDS011;41709;52.536;5.688;2022-12-31T03:37:44;4.28;;;0.77;;
55784;SDS011;41709;52.536;5.688;2022-12-31T03:40:11;4.43;;;0.88;;
55784;SDS011;41709;52.536;5.688;2022-12-31T03:42:37;3.50;;;0.68;;
55784;SDS011;41709;52.536;5.688;2022-12-31T03:45:03;3.33;;;0.70;;
55784;SDS011;41709;52.536;5.688;2022-12-31T03:47:29;2.30;;;0.70;;
55784;SDS011;41709;52.536;5.688;2022-12-31T03:49:55;4.00;;;0.70;;
55784;SDS011;41709;52.536;5.688;2022-12-31T03:52:20;5.45;;;0.90;;
55784;SDS011;41709;52.536;5.688;2022-12-31T03:54:46;3.83;;;0.60;;
55784;SDS011;41709;52.536;5.688;2022-12-31T03:57:12;3.53;;;1.05;;
55784;SDS011;41709;52.536;5.688;2022-12-31T03:59:37;5.72;;;1.02;;
55784;SDS011;41709;52.536;5.688;2022-12-31T04:02:03;4.55;;;1.05;;
55784;SDS011;41709;52.536;5.688;2022-12-31T04:04:29;3.10;;;1.00;;
55784;SDS011;41709;52.536;5.688;2022-12-31T04:06:55;5.63;;;1.00;;
55784;SDS011;41709;52.536;5.688;2022-12-31T04:09:21;3.22;;;1.42;;
55784;SDS011;41709;52.536;5.688;2022-12-31T04:11:46;4.15;;;1.27;;
55784;SDS011;41709;52.536;5.688;2022-12-31T04:14:12;4.15;;;1.40;;
55784;SDS011;41709;52.536;5.688;2022-12-31T04:16:37;2.67;;;1.25;;
55784;SDS011;41709;52.536;5.688;2022-12-31T04:19:03;3.80;;;1.40;;
55784;SDS011;41709;52.536;5.688;2022-12-31T04:21:29;5.38;;;1.67;;
55784;SDS011;41709;52.536;5.688;2022-12-31T04:23:54;2.75;;;1.40;;
55784;SDS011;41709;52.536;5.688;2022-12-31T04:26:20;4.93;;;1.38;;
55784;SDS011;41709;52.536;5.688;2022-12-31T04:28:46;3.42;;;1.10;;
55784;SDS011;41709;52.536;5.688;2022-12-31T04:31:11;1.52;;;0.90;;
55784;SDS011;41709;52.536;5.688;2022-12-31T04:33:37;2.00;;;1.00;;
55784;SDS011;41709;52.536;5.688;2022-12-31T04:36:03;3.83;;;1.10;;
55784;SDS011;41709;52.536;5.688;2022-12-31T04:38:30;1.25;;;0.90;;
55784;SDS011;41709;52.536;5.688;2022-12-31T04:40:55;4.05;;;1.05;;
55784;SDS011;41709;52.536;5.688;2022-12-31T04:43:40;2.70;;;0.88;;
55784;SDS011;41709;52.536;5.688;2022-12-31T04:46:05;1.55;;;0.82;;
55784;SDS011;41709;52.536;5.688;2022-12-31T04:48:34;2.25;;;1.10;;
55784;SDS011;41709;52.536;5.688;2022-12-31T04:51:00;4.13;;;1.20;;
55784;SDS011;41709;52.536;5.688;2022-12-31T04:53:26;3.30;;;0.90;;
55784;SDS011;41709;52.536;5.688;2022-12-31T04:55:51;2.63;;;1.10;;
55784;SDS011;41709;52.536;5.688;2022-12-31T04:58:17;1.38;;;0.80;;
55784;SDS011;41709;52.536;5.688;2022-12-31T05:00:44;3.10;;;0.82;;
55784;SDS011;41709;52.536;5.688;2022-12-31T05:03:10;2.50;;;0.52;;
55784;SDS011;41709;52.536;5.688;2022-12-31T05:05:39;3.03;;;0.82;;
55784;SDS011;41709;52.536;5.688;2022-12-31T05:08:07;2.55;;;0.60;;
55784;SDS011;41709;52.536;5.688;2022-12-31T05:10:33;4.55;;;0.70;;
55784;SDS011;41709;52.536;5.688;2022-12-31T05:13:00;3.42;;;0.70;;
55784;SDS011;41709;52.536;5.688;2022-12-31T05:15:25;3.28;;;1.35;;
55784;SDS011;41709;52.536;5.688;2022-12-31T05:17:51;2.85;;;0.68;;
55784;SDS011;41709;52.536;5.688;2022-12-31T05:20:16;1.08;;;0.65;;
55784;SDS011;41709;52.536;5.688;2022-12-31T05:22:42;3.20;;;0.85;;
55784;SDS011;41709;52.536;5.688;2022-12-31T05:25:07;1.75;;;0.68;;
55784;SDS011;41709;52.536;5.688;2022-12-31T05:27:33;1.55;;;0.80;;
55784;SDS011;41709;52.536;5.688;2022-12-31T05:29:59;2.33;;;0.80;;
55784;SDS011;41709;52.536;5.688;2022-12-31T05:32:24;3.30;;;0.63;;
55784;SDS011;41709;52.536;5.688;2022-12-31T05:34:50;4.05;;;0.90;;
55784;SDS011;41709;52.536;5.688;2022-12-31T05:37:17;1.88;;;0.70;;
55784;SDS011;41709;52.536;5.688;2022-12-31T05:39:43;2.15;;;1.30;;
55784;SDS011;41709;52.536;5.688;2022-12-31T05:42:08;2.72;;;0.77;;
55784;SDS011;41709;52.536;5.688;2022-12-31T05:44:34;1.90;;;0.90;;
55784;SDS011;41709;52.536;5.688;2022-12-31T05:46:59;2.63;;;0.77;;
55784;SDS011;41709;52.536;5.688;2022-12-31T05:49:25;1.58;;;0.70;;
55784;SDS011;41709;52.536;5.688;2022-12-31T05:51:50;2.35;;;0.70;;
55784;SDS011;41709;52.536;5.688;2022-12-31T05:54:16;2.33;;;0.90;;
55784;SDS011;41709;52.536;5.688;2022-12-31T05:56:41;2.45;;;0.70;;
55784;SDS011;41709;52.536;5.688;2022-12-31T05:59:07;3.60;;;1.00;;
55784;SDS011;41709;52.536;5.688;2022-12-31T06:01:32;2.33;;;0.80;;
55784;SDS011;41709;52.536;5.688;2022-12-31T06:03:59;1.05;;;0.65;;
55784;SDS011;41709;52.536;5.688;2022-12-31T06:06:24;0.95;;;0.63;;
55784;SDS011;41709;52.536;5.688;2022-12-31T06:08:50;1.20;;;0.60;;
55784;SDS011;41709;52.536;5.688;2022-12-31T06:11:16;1.52;;;0.90;;
55784;SDS011;41709;52.536;5.688;2022-12-31T06:13:41;3.22;;;0.75;;
55784;SDS011;41709;52.536;5.688;2022-12-31T06:16:08;4.32;;;0.70;;
55784;SDS011;41709;52.536;5.688;2022-12-31T06:18:34;2.08;;;0.80;;
55784;SDS011;41709;52.536;5.688;2022-12-31T06:21:00;2.67;;;1.02;;
55784;SDS011;41709;52.536;5.688;2022-12-31T06:23:26;0.80;;;0.80;;
55784;SDS011;41709;52.536;5.688;2022-12-31T06:25:51;1.77;;;1.10;;
55784;SDS011;41709;52.536;5.688;2022-12-31T06:28:17;5.35;;;1.13;;
55784;SDS011;41709;52.536;5.688;2022-12-31T06:30:43;2.85;;;1.30;;
55784;SDS011;41709;52.536;5.688;2022-12-31T06:33:08;1.60;;;1.40;;
55784;SDS011;41709;52.536;5.688;2022-12-31T06:35:34;3.83;;;1.60;;
55784;SDS011;41709;52.536;5.688;2022-12-31T06:37:59;1.67;;;1.40;;
55784;SDS011;41709;52.536;5.688;2022-12-31T06:40:25;1.77;;;1.65;;
55784;SDS011;41709;52.536;5.688;2022-12-31T06:42:50;1.48;;;1.38;;
55784;SDS011;41709;52.536;5.688;2022-12-31T06:45:17;3.47;;;1.58;;
55784;SDS011;41709;52.536;5.688;2022-12-31T06:47:43;1.65;;;1.30;;
55784;SDS011;41709;52.536;5.688;2022-12-31T06:50:09;1.80;;;1.70;;
55784;SDS011;41709;52.536;5.688;2022-12-31T06:52:34;3.15;;;1.77;;
55784;SDS011;41709;52.536;5.688;2022-12-31T06:55:01;1.80;;;1.70;;
55784;SDS011;41709;52.536;5.688;2022-12-31T06:57:27;2.20;;;1.63;;
55784;SDS011;41709;52.536;5.688;2022-12-31T06:59:53;3.20;;;1.98;;
55784;SDS011;41709;52.536;5.688;2022-12-31T07:02:25;1.98;;;1.50;;
55784;SDS011;41709;52.536;5.688;2022-12-31T07:05:32;2.47;;;1.75;;
55784;SDS011;41709;52.536;5.688;2022-12-31T07:11:01;1.58;;;1.42;;
55784;SDS011;41709;52.536;5.688;2022-12-31T07:13:44;1.55;;;1.45;;
55784;SDS011;41709;52.536;5.688;2022-12-31T07:18:55;1.40;;;1.30;;
55784;SDS011;41709;52.536;5.688;2022-12-31T07:21:36;1.65;;;1.52;;
55784;SDS011;41709;52.536;5.688;2022-12-31T07:24:07;1.95;;;1.52;;
55784;SDS011;41709;52.536;5.688;2022-12-31T07:29:40;2.88;;;1.40;;
55784;SDS011;41709;52.536;5.688;2022-12-31T07:34:54;0.90;;;0.90;;
55784;SDS011;41709;52.536;5.688;2022-12-31T07:37:54;2.35;;;0.60;;
55784;SDS011;41709;52.536;5.688;2022-12-31T07:40:31;12.35;;;1.83;;
55784;SDS011;41709;52.536;5.688;2022-12-31T07:48:41;1.08;;;0.80;;
55784;SDS011;41709;52.536;5.688;2022-12-31T07:51:10;0.90;;;0.90;;
55784;SDS011;41709;52.536;5.688;2022-12-31T07:56:03;1.65;;;1.30;;
55784;SDS011;41709;52.536;5.688;2022-12-31T08:01:12;1.92;;;1.80;;
55784;SDS011;41709;52.536;5.688;2022-12-31T08:06:35;2.05;;;1.30;;
55784;SDS011;41709;52.536;5.688;2022-12-31T08:11:57;1.83;;;1.50;;
55784;SDS011;41709;52.536;5.688;2022-12-31T08:14:24;2.45;;;1.38;;
55784;SDS011;41709;52.536;5.688;2022-12-31T08:16:51;2.28;;;1.95;;
55784;SDS011;41709;52.536;5.688;2022-12-31T08:25:16;0.80;;;0.80;;
55784;SDS011;41709;52.536;5.688;2022-12-31T08:30:43;1.02;;;0.63;;
55784;SDS011;41709;52.536;5.688;2022-12-31T08:33:33;1.50;;;1.08;;
55784;SDS011;41709;52.536;5.688;2022-12-31T08:38:45;1.83;;;1.33;;
55784;SDS011;41709;52.536;5.688;2022-12-31T08:43:54;1.63;;;0.52;;
55784;SDS011;41709;52.536;5.688;2022-12-31T08:49:27;0.82;;;0.40;;
55784;SDS011;41709;52.536;5.688;2022-12-31T08:51:56;0.80;;;0.40;;
55784;SDS011;41709;52.536;5.688;2022-12-31T08:54:23;0.57;;;0.50;;
55784;SDS011;41709;52.536;5.688;2022-12-31T08:56:56;1.65;;;0.30;;
55784;SDS011;41709;52.536;5.688;2022-12-31T09:13:59;1.95;;;0.50;;
55784;SDS011;41709;52.536;5.688;2022-12-31T09:19:11;1.83;;;0.28;;
55784;SDS011;41709;52.536;5.688;2022-12-31T09:21:38;3.05;;;0.38;;
55784;SDS011;41709;52.536;5.688;2022-12-31T09:24:09;1.23;;;0.40;;
55784;SDS011;41709;52.536;5.688;2022-12-31T09:31:48;1.88;;;0.40;;
55784;SDS011;41709;52.536;5.688;2022-12-31T09:34:24;1.88;;;0.40;;
55784;SDS011;41709;52.536;5.688;2022-12-31T09:36:58;1.33;;;0.30;;
55784;SDS011;41709;52.536;5.688;2022-12-31T09:44:58;1.65;;;0.22;;
55784;SDS011;41709;52.536;5.688;2022-12-31T09:48:02;0.75;;;0.30;;
55784;SDS011;41709;52.536;5.688;2022-12-31T09:56:38;2.45;;;0.50;;
55784;SDS011;41709;52.536;5.688;2022-12-31T10:01:44;4.70;;;0.60;;
55784;SDS011;41709;52.536;5.688;2022-12-31T10:12:37;3.58;;;0.60;;
55784;SDS011;41709;52.536;5.688;2022-12-31T10:21:35;3.78;;;1.15;;
55784;SDS011;41709;52.536;5.688;2022-12-31T10:35:58;2.63;;;0.40;;
55784;SDS011;41709;52.536;5.688;2022-12-31T10:38:48;2.75;;;0.60;;
55784;SDS011;41709;52.536;5.688;2022-12-31T10:52:33;2.10;;;0.40;;
55784;SDS011;41709;52.536;5.688;2022-12-31T10:55:30;2.72;;;0.60;;
55784;SDS011;41709;52.536;5.688;2022-12-31T10:58:20;2.35;;;0.80;;
55784;SDS011;41709;52.536;5.688;2022-12-31T11:03:45;4.80;;;0.70;;
55784;SDS011;41709;52.536;5.688;2022-12-31T11:12:03;4.68;;;2.22;;
55784;SDS011;41709;52.536;5.688;2022-12-31T11:38:23;3.25;;;0.82;;
55784;SDS011;41709;52.536;5.688;2022-12-31T11:40:59;2.67;;;0.70;;
55784;SDS011;41709;52.536;5.688;2022-12-31T11:43:45;2.78;;;1.35;;
55784;SDS011;41709;52.536;5.688;2022-12-31T11:47:00;1.55;;;0.43;;
55784;SDS011;41709;52.536;5.688;2022-12-31T11:57:32;4.35;;;0.85;;
55784;SDS011;41709;52.536;5.688;2022-12-31T12:00:12;2.83;;;1.05;;
55784;SDS011;41709;52.536;5.688;2022-12-31T12:02:44;3.03;;;0.85;;
55784;SDS011;41709;52.536;5.688;2022-12-31T12:05:14;2.60;;;1.00;;
55784;SDS011;41709;52.536;5.688;2022-12-31T12:07:42;1.40;;;0.65;;
55784;SDS011;41709;52.536;5.688;2022-12-31T12:10:16;1.25;;;0.60;;
55784;SDS011;41709;52.536;5.688;2022-12-31T12:12:48;1.30;;;0.40;;
55784;SDS011;41709;52.536;5.688;2022-12-31T12:15:21;0.98;;;0.40;;
55784;SDS011;41709;52.536;5.688;2022-12-31T12:17:55;1.50;;;0.60;;
55784;SDS011;41709;52.536;5.688;2022-12-31T12:20:25;1.92;;;0.52;;
55784;SDS011;41709;52.536;5.688;2022-12-31T12:22:57;1.50;;;0.50;;
55784;SDS011;41709;52.536;5.688;2022-12-31T12:25:35;1.15;;;0.60;;
55784;SDS011;41709;52.536;5.688;2022-12-31T12:30:42;2.13;;;0.60;;
55784;SDS011;41709;52.536;5.688;2022-12-31T12:33:15;0.85;;;0.55;;
55784;SDS011;41709;52.536;5.688;2022-12-31T12:35:42;4.00;;;0.93;;
55784;SDS011;41709;52.536;5.688;2022-12-31T12:38:16;4.25;;;0.80;;
55784;SDS011;41709;52.536;5.688;2022-12-31T12:40:51;3.35;;;0.68;;
55784;SDS011;41709;52.536;5.688;2022-12-31T12:43:23;2.63;;;0.60;;
55784;SDS011;41709;52.536;5.688;2022-12-31T12:45:51;2.95;;;0.60;;
55784;SDS011;41709;52.536;5.688;2022-12-31T12:48:20;3.10;;;0.60;;
55784;SDS011;41709;52.536;5.688;2022-12-31T12:50:59;0.60;;;0.40;;
55784;SDS011;41709;52.536;5.688;2022-12-31T12:53:29;2.63;;;0.60;;
55784;SDS011;41709;52.536;5.688;2022-12-31T12:56:16;2.10;;;0.60;;
55784;SDS011;41709;52.536;5.688;2022-12-31T13:05:08;1.88;;;0.73;;
55784;SDS011;41709;52.536;5.688;2022-12-31T13:10:41;4.13;;;2.40;;
55784;SDS011;41709;52.536;5.688;2022-12-31T13:13:23;2.97;;;1.25;;
55784;SDS011;41709;52.536;5.688;2022-12-31T13:15:56;8.43;;;4.90;;
55784;SDS011;41709;52.536;5.688;2022-12-31T13:26:42;1.13;;;0.73;;
55784;SDS011;41709;52.536;5.688;2022-12-31T13:29:16;1.92;;;0.65;;
55784;SDS011;41709;52.536;5.688;2022-12-31T13:31:44;0.77;;;0.30;;
55784;SDS011;41709;52.536;5.688;2022-12-31T13:34:14;0.98;;;0.50;;
55784;SDS011;41709;52.536;5.688;2022-12-31T13:36:45;2.00;;;0.90;;
55784;SDS011;41709;52.536;5.688;2022-12-31T13:39:17;2.60;;;1.10;;
55784;SDS011;41709;52.536;5.688;2022-12-31T13:41:49;2.58;;;0.90;;
55784;SDS011;41709;52.536;5.688;2022-12-31T13:47:04;3.78;;;1.40;;
55784;SDS011;41709;52.536;5.688;2022-12-31T13:49:44;5.80;;;1.63;;
55784;SDS011;41709;52.536;5.688;2022-12-31T13:52:29;5.38;;;1.88;;
55784;SDS011;41709;52.536;5.688;2022-12-31T13:57:51;3.47;;;1.15;;
55784;SDS011;41709;52.536;5.688;2022-12-31T14:00:35;4.45;;;1.10;;
55784;SDS011;41709;52.536;5.688;2022-12-31T14:03:10;4.82;;;1.45;;
55784;SDS011;41709;52.536;5.688;2022-12-31T14:05:55;5.05;;;1.20;;
55784;SDS011;41709;52.536;5.688;2022-12-31T14:08:27;6.18;;;1.08;;
55784;SDS011;41709;52.536;5.688;2022-12-31T14:11:00;4.50;;;1.52;;
55784;SDS011;41709;52.536;5.688;2022-12-31T14:19:31;4.43;;;1.10;;
55784;SDS011;41709;52.536;5.688;2022-12-31T14:25:43;3.85;;;1.15;;
55784;SDS011;41709;52.536;5.688;2022-12-31T14:28:26;3.15;;;1.63;;
55784;SDS011;41709;52.536;5.688;2022-12-31T14:31:18;4.72;;;1.30;;
55784;SDS011;41709;52.536;5.688;2022-12-31T14:33:53;4.82;;;1.60;;
55784;SDS011;41709;52.536;5.688;2022-12-31T14:45:14;4.82;;;1.85;;
55784;SDS011;41709;52.536;5.688;2022-12-31T14:47:47;4.93;;;1.35;;
55784;SDS011;41709;52.536;5.688;2022-12-31T14:50:23;5.28;;;1.73;;
55784;SDS011;41709;52.536;5.688;2022-12-31T14:52:55;5.82;;;1.15;;
55784;SDS011;41709;52.536;5.688;2022-12-31T14:55:36;4.68;;;1.23;;
55784;SDS011;41709;52.536;5.688;2022-12-31T14:58:16;4.85;;;1.52;;
55784;SDS011;41709;52.536;5.688;2022-12-31T15:01:31;5.20;;;1.40;;
55784;SDS011;41709;52.536;5.688;2022-12-31T15:03:40;3.78;;;2.00;;
55784;SDS011;41709;52.536;5.688;2022-12-31T15:08:41;4.82;;;2.65;;
55784;SDS011;41709;52.536;5.688;2022-12-31T15:14:17;3.88;;;1.23;;
55784;SDS011;41709;52.536;5.688;2022-12-31T15:17:08;9.15;;;1.40;;
55784;SDS011;41709;52.536;5.688;2022-12-31T15:19:56;3.90;;;1.40;;
55784;SDS011;41709;52.536;5.688;2022-12-31T15:22:36;5.80;;;1.90;;
55784;SDS011;41709;52.536;5.688;2022-12-31T15:25:45;5.93;;;1.50;;
55784;SDS011;41709;52.536;5.688;2022-12-31T15:28:07;3.58;;;1.50;;
55784;SDS011;41709;52.536;5.688;2022-12-31T15:31:23;8.00;;;1.77;;
55784;SDS011;41709;52.536;5.688;2022-12-31T15:36:22;4.68;;;1.95;;
55784;SDS011;41709;52.536;5.688;2022-12-31T15:38:50;6.60;;;2.45;;
55784;SDS011;41709;52.536;5.688;2022-12-31T15:41:27;12.18;;;4.93;;
55784;SDS011;41709;52.536;5.688;2022-12-31T15:44:12;7.07;;;1.65;;
55784;SDS011;41709;52.536;5.688;2022-12-31T15:46:41;23.13;;;19.00;;
55784;SDS011;41709;52.536;5.688;2022-12-31T15:49:09;5.70;;;2.33;;
55784;SDS011;41709;52.536;5.688;2022-12-31T15:51:49;5.07;;;3.03;;
55784;SDS011;41709;52.536;5.688;2022-12-31T15:54:29;7.45;;;2.97;;
55784;SDS011;41709;52.536;5.688;2022-12-31T15:56:57;11.85;;;2.83;;
55784;SDS011;41709;52.536;5.688;2022-12-31T15:59:23;23.70;;;15.88;;
55784;SDS011;41709;52.536;5.688;2022-12-31T16:01:52;5.70;;;2.55;;
55784;SDS011;41709;52.536;5.688;2022-12-31T16:04:23;7.90;;;2.50;;
55784;SDS011;41709;52.536;5.688;2022-12-31T16:06:57;6.20;;;2.20;;
55784;SDS011;41709;52.536;5.688;2022-12-31T16:09:32;7.57;;;1.83;;
55784;SDS011;41709;52.536;5.688;2022-12-31T16:12:00;8.02;;;3.92;;
55784;SDS011;41709;52.536;5.688;2022-12-31T16:14:33;8.02;;;2.67;;
55784;SDS011;41709;52.536;5.688;2022-12-31T16:17:01;8.25;;;3.30;;
55784;SDS011;41709;52.536;5.688;2022-12-31T16:19:31;8.95;;;2.53;;
55784;SDS011;41709;52.536;5.688;2022-12-31T16:22:06;6.60;;;2.35;;
55784;SDS011;41709;52.536;5.688;2022-12-31T16:24:37;9.20;;;2.55;;
55784;SDS011;41709;52.536;5.688;2022-12-31T16:27:04;8.75;;;2.65;;
55784;SDS011;41709;52.536;5.688;2022-12-31T16:29:32;6.70;;;3.25;;
55784;SDS011;41709;52.536;5.688;2022-12-31T16:32:01;10.18;;;5.35;;
55784;SDS011;41709;52.536;5.688;2022-12-31T16:34:27;9.98;;;3.13;;
55784;SDS011;41709;52.536;5.688;2022-12-31T16:37:04;12.98;;;3.45;;
55784;SDS011;41709;52.536;5.688;2022-12-31T16:39:37;12.93;;;5.75;;
55784;SDS011;41709;52.536;5.688;2022-12-31T16:42:23;16.42;;;12.88;;
55784;SDS011;41709;52.536;5.688;2022-12-31T16:44:51;12.95;;;3.83;;
55784;SDS011;41709;52.536;5.688;2022-12-31T16:50:12;10.57;;;5.00;;
55784;SDS011;41709;52.536;5.688;2022-12-31T16:52:41;16.40;;;11.10;;
55784;SDS011;41709;52.536;5.688;2022-12-31T16:55:09;8.85;;;3.72;;
55784;SDS011;41709;52.536;5.688;2022-12-31T16:58:10;16.42;;;7.72;;
55784;SDS011;41709;52.536;5.688;2022-12-31T17:00:41;16.23;;;4.35;;
55784;SDS011;41709;52.536;5.688;2022-12-31T17:11:25;14.40;;;3.65;;
55784;SDS011;41709;52.536;5.688;2022-12-31T17:13:56;11.90;;;3.35;;
55784;SDS011;41709;52.536;5.688;2022-12-31T17:16:31;13.40;;;5.65;;
55784;SDS011;41709;52.536;5.688;2022-12-31T17:18:59;17.65;;;5.05;;
55784;SDS011;41709;52.536;5.688;2022-12-31T17:21:26;13.60;;;4.78;;
55784;SDS011;41709;52.536;5.688;2022-12-31T17:23:54;11.30;;;3.90;;
55784;SDS011;41709;52.536;5.688;2022-12-31T17:26:25;15.27;;;4.35;;
55784;SDS011;41709;52.536;5.688;2022-12-31T17:28:54;14.13;;;4.35;;
55784;SDS011;41709;52.536;5.688;2022-12-31T17:34:18;12.80;;;3.50;;
55784;SDS011;41709;52.536;5.688;2022-12-31T17:39:47;11.43;;;4.53;;
55784;SDS011;41709;52.536;5.688;2022-12-31T17:42:19;13.38;;;4.93;;
55784;SDS011;41709;52.536;5.688;2022-12-31T17:47:52;9.55;;;3.42;;
55784;SDS011;41709;52.536;5.688;2022-12-31T17:50:23;11.90;;;3.97;;
55784;SDS011;41709;52.536;5.688;2022-12-31T17:52:51;9.73;;;4.13;;
55784;SDS011;41709;52.536;5.688;2022-12-31T17:55:20;17.27;;;8.50;;
55784;SDS011;41709;52.536;5.688;2022-12-31T17:57:50;21.83;;;4.72;;
55784;SDS011;41709;52.536;5.688;2022-12-31T18:00:18;10.45;;;4.93;;
55784;SDS011;41709;52.536;5.688;2022-12-31T18:02:46;14.47;;;5.53;;
55784;SDS011;41709;52.536;5.688;2022-12-31T18:05:15;9.52;;;4.25;;
55784;SDS011;41709;52.536;5.688;2022-12-31T18:07:45;12.43;;;4.72;;
55784;SDS011;41709;52.536;5.688;2022-12-31T18:10:12;6.45;;;2.97;;
55784;SDS011;41709;52.536;5.688;2022-12-31T18:12:39;10.27;;;4.03;;
55784;SDS011;41709;52.536;5.688;2022-12-31T18:15:05;9.90;;;4.07;;
55784;SDS011;41709;52.536;5.688;2022-12-31T18:17:31;10.68;;;3.90;;
55784;SDS011;41709;52.536;5.688;2022-12-31T18:20:00;10.40;;;4.03;;
55784;SDS011;41709;52.536;5.688;2022-12-31T18:22:25;10.52;;;3.85;;
55784;SDS011;41709;52.536;5.688;2022-12-31T18:24:51;7.85;;;3.13;;
55784;SDS011;41709;52.536;5.688;2022-12-31T18:29:46;14.68;;;5.13;;
55784;SDS011;41709;52.536;5.688;2022-12-31T18:32:45;10.40;;;4.43;;
55784;SDS011;41709;52.536;5.688;2022-12-31T18:35:05;9.13;;;3.80;;
55784;SDS011;41709;52.536;5.688;2022-12-31T18:37:36;9.82;;;4.00;;
55784;SDS011;41709;52.536;5.688;2022-12-31T18:40:02;11.00;;;4.60;;
55784;SDS011;41709;52.536;5.688;2022-12-31T18:42:28;18.02;;;8.10;;
55784;SDS011;41709;52.536;5.688;2022-12-31T18:44:53;13.88;;;7.00;;
55784;SDS011;41709;52.536;5.688;2022-12-31T18:47:19;30.60;;;19.02;;
55784;SDS011;41709;52.536;5.688;2022-12-31T18:49:48;13.32;;;5.22;;
55784;SDS011;41709;52.536;5.688;2022-12-31T18:52:15;13.48;;;3.58;;
55784;SDS011;41709;52.536;5.688;2022-12-31T18:54:43;12.93;;;5.55;;
55784;SDS011;41709;52.536;5.688;2022-12-31T18:57:09;17.52;;;5.20;;
55784;SDS011;41709;52.536;5.688;2022-12-31T18:59:35;10.15;;;3.70;;
55784;SDS011;41709;52.536;5.688;2022-12-31T19:02:01;10.88;;;3.88;;
55784;SDS011;41709;52.536;5.688;2022-12-31T19:04:27;9.60;;;2.92;;
55784;SDS011;41709;52.536;5.688;2022-12-31T19:06:53;12.93;;;4.10;;
55784;SDS011;41709;52.536;5.688;2022-12-31T19:09:19;22.80;;;11.15;;
55784;SDS011;41709;52.536;5.688;2022-12-31T19:11:44;15.80;;;6.97;;
55784;SDS011;41709;52.536;5.688;2022-12-31T19:14:13;11.40;;;3.83;;
55784;SDS011;41709;52.536;5.688;2022-12-31T19:16:42;13.68;;;3.85;;
55784;SDS011;41709;52.536;5.688;2022-12-31T19:19:10;12.87;;;6.07;;
55784;SDS011;41709;52.536;5.688;2022-12-31T19:21:36;18.20;;;5.68;;
55784;SDS011;41709;52.536;5.688;2022-12-31T19:24:02;15.60;;;6.15;;
55784;SDS011;41709;52.536;5.688;2022-12-31T19:26:34;18.90;;;7.82;;
55784;SDS011;41709;52.536;5.688;2022-12-31T19:28:59;15.10;;;6.13;;